createdAt,value
2023-05-20T00:00:49.111Z,66.00
2023-05-20T00:03:16.958Z,53.17
2023-05-20T00:05:44.015Z,56.40
2023-05-20T00:08:11.219Z,56.70
2023-05-20T00:10:38.328Z,57.67
2023-05-20T00:13:06.490Z,64.38
2023-05-20T00:15:34.675Z,57.95
2023-05-20T00:18:02.658Z,54.60
2023-05-20T00:20:29.591Z,59.30
2023-05-20T00:22:56.314Z,61.83
2023-05-20T00:25:22.986Z,61.05
2023-05-20T00:27:49.547Z,69.57
2023-05-20T00:30:16.393Z,59.95
2023-05-20T00:32:42.989Z,58.38
2023-05-20T00:35:11.382Z,60.92
2023-05-20T00:37:37.933Z,60.35
2023-05-20T00:40:05.669Z,66.32
2023-05-20T00:42:32.257Z,61.80
2023-05-20T00:45:00.728Z,65.10
2023-05-20T00:47:30.531Z,61.03
2023-05-20T00:49:57.722Z,57.55
2023-05-20T00:52:25.612Z,59.42
2023-05-20T00:54:52.637Z,63.55
2023-05-20T00:57:19.962Z,65.70
2023-05-20T00:59:46.963Z,65.07
2023-05-20T01:02:14.084Z,61.72
2023-05-20T01:04:41.833Z,53.72
2023-05-20T01:07:08.530Z,65.35
2023-05-20T01:09:35.847Z,75.60
2023-05-20T01:12:21.172Z,70.45
2023-05-20T01:15:00.390Z,60.17
2023-05-20T01:17:33.151Z,71.85
2023-05-20T01:20:02.472Z,60.53
2023-05-20T01:22:29.759Z,59.10
2023-05-20T01:24:57.100Z,69.00
2023-05-20T01:27:26.510Z,70.88
2023-05-20T01:29:53.486Z,61.47
2023-05-20T01:32:23.066Z,65.65
2023-05-20T01:34:51.403Z,63.78
2023-05-20T01:37:19.941Z,70.03
2023-05-20T01:39:48.559Z,68.97
2023-05-20T01:42:16.059Z,67.20
2023-05-20T01:44:43.165Z,79.70
2023-05-20T01:47:09.839Z,84.20
2023-05-20T01:49:36.471Z,76.90
2023-05-20T01:52:04.442Z,76.85
2023-05-20T01:54:31.429Z,80.10
2023-05-20T01:56:58.359Z,76.25
2023-05-20T01:59:25.334Z,69.72
2023-05-20T02:01:51.964Z,80.65
2023-05-20T02:04:19.142Z,77.35
2023-05-20T02:06:46.190Z,73.00
2023-05-20T02:09:13.107Z,82.43
2023-05-20T02:11:39.989Z,87.63
2023-05-20T02:14:06.620Z,77.00
2023-05-20T02:16:33.492Z,76.50
2023-05-20T02:19:02.162Z,73.70
2023-05-20T02:21:28.842Z,79.43
2023-05-20T02:23:55.609Z,79.82
2023-05-20T02:26:22.720Z,85.88
2023-05-20T02:28:50.761Z,88.57
2023-05-20T02:31:18.167Z,96.57
2023-05-20T02:33:45.300Z,87.07
2023-05-20T02:36:12.372Z,94.28
2023-05-20T02:38:39.184Z,91.72
2023-05-20T02:41:05.789Z,97.85
2023-05-20T02:43:33.576Z,104.00
2023-05-20T02:46:01.291Z,87.07
2023-05-20T02:48:28.165Z,85.32
2023-05-20T02:50:54.939Z,90.40
2023-05-20T02:53:21.599Z,91.40
2023-05-20T02:55:48.932Z,100.97
2023-05-20T02:58:15.924Z,94.28
2023-05-20T03:00:43.566Z,94.65
2023-05-20T03:03:10.711Z,100.90
2023-05-20T03:05:38.176Z,100.97
2023-05-20T03:08:10.637Z,97.03
2023-05-20T03:10:38.635Z,92.63
2023-05-20T03:13:11.508Z,90.80
2023-05-20T03:15:39.354Z,92.97
2023-05-20T03:18:08.522Z,84.90
2023-05-20T03:20:40.130Z,97.20
2023-05-20T03:23:07.817Z,84.80
2023-05-20T03:25:37.295Z,85.47
2023-05-20T03:28:04.423Z,87.22
2023-05-20T03:30:31.477Z,85.55
2023-05-20T03:32:59.496Z,75.57
2023-05-20T03:35:26.438Z,92.53
2023-05-20T03:37:53.417Z,82.95
2023-05-20T03:40:22.364Z,73.20
2023-05-20T03:42:50.962Z,75.63
2023-05-20T03:45:19.353Z,75.50
2023-05-20T03:48:03.653Z,76.97
2023-05-20T03:50:32.683Z,80.07
2023-05-20T03:53:00.515Z,72.38
2023-05-20T03:55:28.881Z,86.15
2023-05-20T03:57:55.528Z,75.25
2023-05-20T04:00:22.787Z,79.15
2023-05-20T04:02:49.553Z,80.93
2023-05-20T04:05:19.408Z,69.30
2023-05-20T04:07:46.948Z,70.55
2023-05-20T04:10:14.280Z,70.35
2023-05-20T04:12:41.445Z,74.95
2023-05-20T04:15:09.222Z,65.63
2023-05-20T04:17:48.413Z,72.57
2023-05-20T04:20:15.894Z,71.95
2023-05-20T04:22:42.547Z,77.65
2023-05-20T04:25:09.937Z,62.83
2023-05-20T04:27:39.669Z,64.72
2023-05-20T04:30:07.795Z,62.17
2023-05-20T04:35:11.922Z,66.38
2023-05-20T04:37:42.323Z,66.38
2023-05-20T04:40:09.805Z,68.85
2023-05-20T04:42:37.644Z,62.58
2023-05-20T04:45:05.881Z,68.95
2023-05-20T04:47:38.658Z,65.50
2023-05-20T04:50:11.134Z,63.90
2023-05-20T04:52:42.948Z,71.95
2023-05-20T04:55:10.843Z,70.03
2023-05-20T04:57:41.604Z,65.30
2023-05-20T05:00:10.389Z,65.05
2023-05-20T05:02:39.058Z,60.97
2023-05-20T05:05:06.694Z,62.72
2023-05-20T05:07:33.470Z,62.03
2023-05-20T05:10:00.537Z,56.40
2023-05-20T05:12:29.662Z,57.38
2023-05-20T05:14:57.649Z,61.95
2023-05-20T05:17:25.091Z,63.50
2023-05-20T05:19:51.762Z,63.13
2023-05-20T05:22:18.386Z,56.45
2023-05-20T05:24:45.572Z,61.70
2023-05-20T05:27:12.228Z,56.38
2023-05-20T05:29:38.968Z,63.95
2023-05-20T05:32:05.688Z,58.88
2023-05-20T05:34:32.343Z,54.97
2023-05-20T05:36:59.605Z,64.25
2023-05-20T05:39:26.313Z,57.28
2023-05-20T05:41:54.149Z,58.28
2023-05-20T05:44:21.318Z,56.55
2023-05-20T05:46:51.206Z,59.20
2023-05-20T05:49:17.923Z,53.35
2023-05-20T05:51:44.759Z,59.85
2023-05-20T05:54:12.073Z,59.55
2023-05-20T05:56:38.976Z,60.47
2023-05-20T05:59:06.012Z,68.20
2023-05-20T06:01:32.807Z,59.50
2023-05-20T06:03:59.660Z,58.35
2023-05-20T06:06:26.672Z,68.35
2023-05-20T06:08:54.006Z,63.53
2023-05-20T06:11:21.613Z,69.50
2023-05-20T06:13:48.366Z,62.60
2023-05-20T06:16:14.971Z,59.92
2023-05-20T06:18:41.653Z,69.25
2023-05-20T06:23:29.380Z,67.57
2023-05-20T06:25:59.983Z,61.10
2023-05-20T06:28:27.695Z,68.35
2023-05-20T06:30:55.491Z,72.72
2023-05-20T06:33:27.122Z,80.68
2023-05-20T06:35:57.237Z,73.40
2023-05-20T06:38:23.902Z,71.20
2023-05-20T06:40:51.426Z,71.53
2023-05-20T06:43:18.228Z,71.78
2023-05-20T06:45:54.159Z,67.15
2023-05-20T06:48:35.418Z,66.95
2023-05-20T06:51:02.156Z,70.60
2023-05-20T06:53:31.714Z,72.60
2023-05-20T06:55:58.426Z,69.75
2023-05-20T06:58:26.113Z,66.55
2023-05-20T07:00:54.854Z,74.40
2023-05-20T07:03:21.587Z,64.93
2023-05-20T07:05:48.209Z,69.32
2023-05-20T07:08:14.887Z,65.47
2023-05-20T07:10:41.499Z,64.65
2023-05-20T07:13:11.990Z,68.03
2023-05-20T07:15:38.735Z,59.30
2023-05-20T07:18:05.909Z,52.67
2023-05-20T07:20:32.905Z,65.85
2023-05-20T07:23:04.442Z,63.42
2023-05-20T07:25:37.521Z,65.15
2023-05-20T07:28:04.450Z,68.20
2023-05-20T07:30:31.335Z,67.78
2023-05-20T07:33:11.814Z,63.95
2023-05-20T07:35:38.589Z,66.28
2023-05-20T07:38:05.305Z,66.93
2023-05-20T07:40:32.232Z,69.90
2023-05-20T07:42:59.073Z,66.03
2023-05-20T07:45:25.938Z,65.65
2023-05-20T07:47:52.596Z,59.35
2023-05-20T07:50:19.278Z,56.05
2023-05-20T07:52:55.843Z,53.92
2023-05-20T07:55:26.256Z,52.60
2023-05-20T07:57:52.996Z,55.63
2023-05-20T08:00:21.090Z,48.47
2023-05-20T08:02:50.449Z,47.78
2023-05-20T08:05:24.168Z,55.17
2023-05-20T08:07:51.791Z,44.28
2023-05-20T08:10:21.368Z,50.75
2023-05-20T08:12:48.234Z,52.88
2023-05-20T08:15:14.931Z,44.33
2023-05-20T08:17:41.833Z,44.10
2023-05-20T08:20:12.785Z,42.55
2023-05-20T08:22:39.792Z,48.78
2023-05-20T08:25:10.044Z,46.13
2023-05-20T08:27:37.338Z,47.08
2023-05-20T08:30:08.222Z,44.80
2023-05-20T08:32:35.014Z,53.35
2023-05-20T08:35:02.222Z,48.58
2023-05-20T08:37:29.537Z,47.15
2023-05-20T08:39:56.371Z,40.33
2023-05-20T08:42:24.639Z,49.03
2023-05-20T08:44:54.554Z,53.53
2023-05-20T08:47:22.952Z,50.58
2023-05-20T08:49:50.000Z,54.53
2023-05-20T08:52:18.417Z,53.55
2023-05-20T08:54:47.801Z,50.25
2023-05-20T08:57:17.782Z,59.05
2023-05-20T08:59:46.961Z,52.50
2023-05-20T09:02:14.337Z,50.00
2023-05-20T09:04:41.145Z,54.42
2023-05-20T09:07:07.937Z,51.55
2023-05-20T09:09:35.535Z,57.72
2023-05-20T09:12:03.558Z,51.63
2023-05-20T09:14:31.168Z,54.40
2023-05-20T09:16:58.040Z,57.28
2023-05-20T09:19:25.557Z,54.00
2023-05-20T09:21:55.572Z,70.18
2023-05-20T09:24:26.790Z,59.30
2023-05-20T09:26:53.627Z,67.57
2023-05-20T09:29:21.827Z,65.13
2023-05-20T09:31:51.805Z,61.50
2023-05-20T09:34:18.762Z,64.95
2023-05-20T09:36:45.574Z,56.88
2023-05-20T09:39:15.949Z,60.22
2023-05-20T09:41:57.739Z,60.70
2023-05-20T09:44:24.896Z,58.35
2023-05-20T09:46:53.216Z,57.47
2023-05-20T09:49:21.489Z,61.97
2023-05-20T09:54:08.332Z,54.55
2023-05-20T09:56:35.416Z,57.15
2023-05-20T09:59:05.120Z,56.75
2023-05-20T10:01:31.926Z,52.30
2023-05-20T10:04:01.814Z,60.40
2023-05-20T10:06:57.799Z,67.88
2023-05-20T10:09:27.111Z,63.25
2023-05-20T10:12:21.385Z,50.10
2023-05-20T10:15:20.423Z,56.78
2023-05-20T10:18:29.488Z,56.42
2023-05-20T10:20:56.195Z,51.55
2023-05-20T10:23:23.785Z,51.53
2023-05-20T10:25:54.701Z,55.13
2023-05-20T10:28:38.093Z,56.63
2023-05-20T10:31:21.684Z,57.50
2023-05-20T10:33:51.844Z,57.88
2023-05-20T10:36:27.949Z,53.47
2023-05-20T10:38:56.641Z,57.13
2023-05-20T10:41:27.343Z,54.13
2023-05-20T10:44:05.678Z,57.65
2023-05-20T10:46:48.319Z,52.97
2023-05-20T10:49:24.054Z,53.63
2023-05-20T10:51:52.046Z,54.45
2023-05-20T10:54:18.769Z,43.40
2023-05-20T10:56:54.683Z,65.22
2023-05-20T10:59:22.223Z,48.53
2023-05-20T11:01:51.934Z,50.38
2023-05-20T11:04:20.059Z,48.53
2023-05-20T11:06:57.074Z,49.47
2023-05-20T11:09:23.850Z,56.95
2023-05-20T11:11:52.297Z,51.63
2023-05-20T11:14:20.121Z,47.83
2023-05-20T11:16:47.056Z,50.70
2023-05-20T11:19:17.264Z,51.08
2023-05-20T11:21:44.916Z,51.30
2023-05-20T11:24:12.706Z,50.30
2023-05-20T11:26:40.439Z,53.25
2023-05-20T11:29:07.069Z,47.15
2023-05-20T11:31:33.943Z,47.67
2023-05-20T11:34:04.100Z,50.10
2023-05-20T11:36:31.113Z,49.55
2023-05-20T11:39:01.213Z,41.88
2023-05-20T11:41:28.268Z,41.78
2023-05-20T11:43:59.365Z,47.45
2023-05-20T11:46:27.053Z,41.50
2023-05-20T11:48:57.534Z,43.58
2023-05-20T11:51:28.060Z,49.15
2023-05-20T11:54:01.401Z,49.55
2023-05-20T11:56:38.667Z,43.65
2023-05-20T11:59:06.714Z,42.08
2023-05-20T12:01:37.701Z,43.25
2023-05-20T12:04:10.614Z,37.70
2023-05-20T12:06:37.481Z,43.65
2023-05-20T12:09:08.916Z,55.53
2023-05-20T12:11:42.269Z,40.72
2023-05-20T12:14:09.890Z,36.47
2023-05-20T12:16:38.139Z,37.85
2023-05-20T12:19:05.927Z,45.53
2023-05-20T12:21:32.630Z,34.33
2023-05-20T12:24:01.026Z,41.60
2023-05-20T12:26:29.181Z,38.65
2023-05-20T12:28:56.121Z,38.45
2023-05-20T12:31:22.799Z,39.80
2023-05-20T12:33:49.432Z,36.55
2023-05-20T12:36:16.327Z,30.67
2023-05-20T12:38:43.141Z,44.13
2023-05-20T12:41:09.682Z,43.35
2023-05-20T12:43:39.600Z,38.17
2023-05-20T12:46:06.551Z,35.38
2023-05-20T12:48:33.425Z,37.83
2023-05-20T12:51:00.273Z,37.00
2023-05-20T12:53:26.836Z,42.33
2023-05-20T12:55:53.727Z,35.35
2023-05-20T12:58:20.334Z,42.80
2023-05-20T13:00:46.941Z,34.85
2023-05-20T13:03:13.748Z,31.58
2023-05-20T13:05:40.786Z,38.72
2023-05-20T13:08:08.982Z,36.83
2023-05-20T13:10:36.252Z,37.88
2023-05-20T13:13:03.098Z,32.25
2023-05-20T13:15:29.757Z,34.38
2023-05-20T13:17:56.556Z,36.95
2023-05-20T13:20:23.507Z,43.17
2023-05-20T13:22:50.402Z,34.28
2023-05-20T13:25:17.754Z,35.53
2023-05-20T13:27:44.331Z,37.78
2023-05-20T13:30:11.297Z,35.17
2023-05-20T13:32:38.007Z,34.78
2023-05-20T13:35:05.297Z,36.90
2023-05-20T13:37:31.894Z,35.97
2023-05-20T13:39:58.675Z,39.20
2023-05-20T13:42:25.345Z,37.13
2023-05-20T13:44:51.993Z,35.08
2023-05-20T13:47:18.574Z,39.05
2023-05-20T13:49:45.388Z,34.88
2023-05-20T13:52:12.273Z,38.20
2023-05-20T13:54:38.868Z,34.03
2023-05-20T13:57:07.995Z,35.40
2023-05-20T13:59:35.058Z,42.70
2023-05-20T14:02:02.251Z,38.15
2023-05-20T14:04:29.258Z,37.15
2023-05-20T14:06:56.179Z,41.38
2023-05-20T14:09:22.937Z,33.33
2023-05-20T14:11:51.330Z,34.55
2023-05-20T14:14:18.067Z,35.15
2023-05-20T14:16:45.120Z,28.08
2023-05-20T14:19:11.894Z,39.42
2023-05-20T14:21:38.577Z,30.38
2023-05-20T14:24:07.009Z,32.97
2023-05-20T14:26:34.479Z,37.55
2023-05-20T14:29:01.445Z,33.30
2023-05-20T14:31:28.112Z,30.60
2023-05-20T14:33:55.074Z,33.63
2023-05-20T14:36:21.713Z,33.35
2023-05-20T14:38:49.521Z,29.65
2023-05-20T14:41:16.674Z,29.85
2023-05-20T14:43:43.349Z,28.95
2023-05-20T14:46:10.486Z,31.05
2023-05-20T14:48:37.299Z,28.25
2023-05-20T14:51:04.029Z,42.00
2023-05-20T14:53:30.961Z,31.35
2023-05-20T14:55:57.940Z,32.97
2023-05-20T14:58:24.605Z,27.05
2023-05-20T15:00:53.396Z,27.65
2023-05-20T15:03:20.470Z,32.22
2023-05-20T15:05:47.157Z,29.88
2023-05-20T15:08:13.929Z,27.67
2023-05-20T15:10:40.584Z,27.00
2023-05-20T15:13:07.419Z,32.92
2023-05-20T15:15:34.329Z,30.95
2023-05-20T15:18:01.273Z,30.52
2023-05-20T15:20:27.905Z,25.33
2023-05-20T15:22:54.780Z,22.98
2023-05-20T15:25:21.569Z,28.27
2023-05-20T15:27:48.564Z,28.38
2023-05-20T15:30:15.596Z,24.33
2023-05-20T15:32:42.896Z,26.00
2023-05-20T15:35:09.873Z,28.23
2023-05-20T15:37:36.575Z,24.98
2023-05-20T15:40:04.477Z,29.25
2023-05-20T15:42:31.787Z,23.88
2023-05-20T15:44:58.369Z,28.48
2023-05-20T15:47:25.125Z,25.60
2023-05-20T15:49:51.696Z,25.73
2023-05-20T15:52:18.340Z,22.83
2023-05-20T15:54:44.894Z,25.63
2023-05-20T15:57:11.717Z,27.05
2023-05-20T15:59:38.375Z,24.13
2023-05-20T16:02:06.688Z,24.38
2023-05-20T16:04:33.505Z,26.05
2023-05-20T16:07:00.198Z,27.25
2023-05-20T16:09:26.860Z,25.83
2023-05-20T16:11:53.518Z,24.15
2023-05-20T16:14:21.315Z,21.92
2023-05-20T16:16:48.018Z,23.75
2023-05-20T16:19:14.798Z,26.38
2023-05-20T16:21:41.412Z,24.33
2023-05-20T16:24:08.014Z,30.75
2023-05-20T16:26:34.700Z,22.02
2023-05-20T16:29:01.565Z,27.48
2023-05-20T16:31:30.372Z,24.95
2023-05-20T16:33:57.395Z,24.90
2023-05-20T16:36:24.353Z,35.13
2023-05-20T16:38:51.056Z,31.33
2023-05-20T16:41:17.751Z,27.63
2023-05-20T16:43:44.295Z,35.78
2023-05-20T16:46:12.582Z,23.52
2023-05-20T16:48:39.303Z,27.60
2023-05-20T16:51:06.207Z,24.00
2023-05-20T16:53:32.766Z,31.20
2023-05-20T16:55:59.405Z,24.38
2023-05-20T16:58:26.164Z,26.92
2023-05-20T17:00:52.992Z,28.05
2023-05-20T17:03:21.070Z,25.85
2023-05-20T17:05:50.006Z,30.98
2023-05-20T17:08:16.762Z,25.90
2023-05-20T17:10:43.416Z,24.63
2023-05-20T17:13:09.992Z,27.35
2023-05-20T17:15:37.231Z,24.52
2023-05-20T17:18:04.078Z,23.63
2023-05-20T17:20:31.174Z,22.02
2023-05-20T17:22:57.856Z,28.35
2023-05-20T17:25:24.672Z,23.45
2023-05-20T17:27:51.519Z,26.63
2023-05-20T17:30:18.189Z,22.73
2023-05-20T17:32:44.806Z,23.05
2023-05-20T17:35:11.484Z,29.55
2023-05-20T17:37:38.133Z,22.58
2023-05-20T17:40:08.455Z,27.85
2023-05-20T17:42:35.013Z,21.70
2023-05-20T17:45:01.702Z,21.27
2023-05-20T17:47:28.274Z,26.08
2023-05-20T17:49:54.809Z,20.42
2023-05-20T17:52:21.441Z,23.65
2023-05-20T17:54:48.031Z,20.92
2023-05-20T17:57:14.636Z,23.50
2023-05-20T17:59:42.037Z,21.70
2023-05-20T18:02:09.046Z,21.23
2023-05-20T18:04:35.771Z,26.33
2023-05-20T18:07:03.954Z,25.20
2023-05-20T18:09:31.053Z,19.60
2023-05-20T18:11:57.759Z,25.35
2023-05-20T18:14:26.516Z,19.70
2023-05-20T18:16:57.564Z,27.23
2023-05-20T18:19:25.356Z,23.40
2023-05-20T18:21:52.164Z,23.45
2023-05-20T18:24:20.359Z,18.63
2023-05-20T18:26:47.532Z,19.95
2023-05-20T18:29:14.626Z,19.38
2023-05-20T18:31:43.393Z,24.25
2023-05-20T18:34:10.618Z,23.92
2023-05-20T18:36:37.903Z,22.63
2023-05-20T18:39:04.812Z,17.23
2023-05-20T18:41:39.549Z,19.95
2023-05-20T18:44:12.522Z,23.38
2023-05-20T18:46:41.423Z,25.02
2023-05-20T18:49:08.348Z,24.70
2023-05-20T18:51:34.932Z,24.42
2023-05-20T18:54:01.641Z,28.63
2023-05-20T18:56:28.563Z,21.48
2023-05-20T18:58:55.394Z,23.35
2023-05-20T19:01:22.213Z,25.95
2023-05-20T19:03:48.864Z,24.50
2023-05-20T19:06:16.447Z,26.60
2023-05-20T19:08:43.840Z,19.98
2023-05-20T19:11:11.010Z,20.00
2023-05-20T19:13:37.766Z,25.90
2023-05-20T19:16:04.435Z,29.25
2023-05-20T19:18:31.228Z,22.20
2023-05-20T19:20:57.815Z,22.08
2023-05-20T19:23:24.500Z,21.13
2023-05-20T19:25:51.239Z,22.33
2023-05-20T19:28:18.026Z,19.80
2023-05-20T19:30:44.854Z,33.00
2023-05-20T19:33:11.945Z,25.02
2023-05-20T19:35:38.617Z,22.70
2023-05-20T19:38:05.879Z,20.20
2023-05-20T19:40:32.707Z,23.27
2023-05-20T19:42:59.464Z,30.67
2023-05-20T19:45:26.260Z,21.88
2023-05-20T19:47:52.877Z,26.15
2023-05-20T19:50:19.690Z,22.45
2023-05-20T19:52:46.621Z,20.75
2023-05-20T19:55:13.426Z,23.75
2023-05-20T19:57:41.857Z,22.05
2023-05-20T20:00:11.286Z,21.60
2023-05-20T20:02:41.435Z,22.20
2023-05-20T20:05:08.805Z,20.20
2023-05-20T20:07:35.527Z,27.58
2023-05-20T20:10:02.326Z,25.13
2023-05-20T20:12:28.953Z,25.25
2023-05-20T20:14:56.138Z,25.50
2023-05-20T20:17:23.708Z,24.73
2023-05-20T20:19:53.323Z,25.33
2023-05-20T20:22:20.125Z,23.92
2023-05-20T20:24:46.823Z,22.77
2023-05-20T20:27:13.618Z,27.65
2023-05-20T20:29:41.290Z,22.25
2023-05-20T20:32:08.995Z,26.70
2023-05-20T20:34:35.722Z,29.92
2023-05-20T20:37:18.093Z,30.38
2023-05-20T20:39:46.723Z,24.38
2023-05-20T20:42:13.401Z,23.80
2023-05-20T20:44:42.716Z,24.90
2023-05-20T20:49:26.901Z,27.42
2023-05-20T20:51:55.003Z,23.70
2023-05-20T20:54:21.540Z,25.48
2023-05-20T20:56:49.930Z,22.67
2023-05-20T20:59:16.710Z,28.52
2023-05-20T21:01:44.592Z,25.95
2023-05-20T21:04:13.596Z,24.75
2023-05-20T21:06:46.076Z,22.60
2023-05-20T21:09:13.967Z,22.95
2023-05-20T21:11:42.243Z,27.17
2023-05-20T21:14:09.927Z,28.52
2023-05-20T21:16:36.506Z,28.42
2023-05-20T21:19:03.428Z,23.67
2023-05-20T21:21:30.898Z,27.30
2023-05-20T21:23:57.831Z,31.30
2023-05-20T21:26:25.620Z,28.10
2023-05-20T21:28:52.640Z,26.45
2023-05-20T21:31:19.382Z,28.10
2023-05-20T21:33:46.118Z,23.52
2023-05-20T21:36:12.825Z,33.97
2023-05-20T21:38:39.889Z,30.42
2023-05-20T21:41:06.772Z,27.80
2023-05-20T21:43:33.482Z,31.02
2023-05-20T21:46:00.500Z,34.38
2023-05-20T21:48:27.112Z,30.27
2023-05-20T21:50:53.683Z,31.83
2023-05-20T21:53:20.667Z,31.23
2023-05-20T21:55:47.202Z,29.90
2023-05-20T21:58:13.821Z,27.83
2023-05-20T22:00:40.986Z,29.80
2023-05-20T22:03:07.851Z,28.60
2023-05-20T22:05:34.871Z,27.83
2023-05-20T22:08:01.856Z,33.67
2023-05-20T22:10:28.422Z,31.40
2023-05-20T22:12:55.642Z,34.65
2023-05-20T22:15:22.909Z,32.78
2023-05-20T22:17:49.625Z,28.30
2023-05-20T22:22:32.311Z,33.88
2023-05-20T22:24:59.052Z,29.88
2023-05-20T22:27:25.591Z,31.95
2023-05-20T22:29:52.172Z,29.55
2023-05-20T22:32:18.756Z,31.38
2023-05-20T22:34:45.379Z,33.88
2023-05-20T22:37:12.099Z,31.17
2023-05-20T22:39:38.840Z,29.20
2023-05-20T22:42:05.796Z,33.90
2023-05-20T22:44:32.613Z,34.28
2023-05-20T22:46:59.233Z,35.38
2023-05-20T22:49:27.789Z,30.63
2023-05-20T22:51:54.349Z,28.88
2023-05-20T22:54:21.068Z,33.65
2023-05-20T22:56:50.048Z,32.13
2023-05-20T22:59:18.439Z,32.45
2023-05-20T23:01:45.958Z,38.15
2023-05-20T23:04:12.730Z,34.97
2023-05-20T23:06:39.284Z,36.30
2023-05-20T23:09:06.376Z,36.03
2023-05-20T23:11:32.901Z,36.75
2023-05-20T23:14:02.540Z,29.65
2023-05-20T23:16:29.538Z,38.13
2023-05-20T23:18:56.496Z,37.83
2023-05-20T23:21:23.434Z,35.95
2023-05-20T23:23:50.072Z,34.25
2023-05-20T23:26:16.580Z,35.20
2023-05-20T23:28:43.196Z,31.35
2023-05-20T23:31:09.985Z,38.40
2023-05-20T23:33:36.739Z,33.58
2023-05-20T23:36:03.564Z,36.60
2023-05-20T23:38:30.469Z,37.75
2023-05-20T23:40:59.736Z,32.88
2023-05-20T23:43:26.452Z,36.13
2023-05-20T23:45:53.059Z,33.15
2023-05-20T23:48:20.683Z,30.95
2023-05-20T23:50:48.145Z,38.05
2023-05-20T23:53:14.922Z,37.33
2023-05-20T23:55:45.107Z,33.70
2023-05-20T23:58:11.928Z,36.95
